Time;durP1;ratioP1;P1;durP2;ratioP2;P2;SDS_P1;SDS_P2;PMS_P1;PMS_P2;Temp;Humidity;BMP_temperature;BMP_pressure;BME280_temperature;BME280_humidity;BME280_pressure;Samples;Min_cycle;Max_cycle;Signal;HPM_P1;HPM_P2
2023/08/06 00:00:14;;;;;;;2.00;1.90;;;19.10;68.70;;;;;;4987260;28;20688;-50
2023/08/06 00:02:44;;;;;;;4.72;1.80;;;19.00;69.00;;;;;;4989918;28;20042;-50
2023/08/06 00:05:11;;;;;;;1.77;1.42;;;19.00;68.60;;;;;;4992647;28;20054;-51
2023/08/06 00:07:37;;;;;;;3.65;2.03;;;19.00;68.70;;;;;;4992343;28;20475;-49
2023/08/06 00:10:05;;;;;;;1.90;1.70;;;18.90;68.70;;;;;;4992526;28;20056;-55
2023/08/06 00:12:33;;;;;;;2.53;1.70;;;18.90;68.80;;;;;;4993051;28;20074;-51
2023/08/06 00:15:03;;;;;;;1.70;1.60;;;18.90;68.80;;;;;;4992426;28;20088;-48
2023/08/06 00:17:32;;;;;;;2.00;1.80;;;18.80;68.80;;;;;;4992962;28;20041;-49
2023/08/06 00:20:04;;;;;;;2.75;1.50;;;18.80;68.60;;;;;;5007346;28;20070;-48
2023/08/06 00:22:36;;;;;;;2.45;1.50;;;18.70;69.10;;;;;;4992375;28;20038;-49
2023/08/06 00:25:06;;;;;;;3.40;1.38;;;18.70;69.40;;;;;;4991274;28;20153;-50
2023/08/06 00:27:38;;;;;;;1.77;1.20;;;18.70;69.20;;;;;;4993208;28;20046;-52
2023/08/06 00:30:07;;;;;;;3.72;1.80;;;18.70;69.40;;;;;;4991156;28;20424;-48
2023/08/06 00:32:34;;;;;;;1.52;1.42;;;18.70;69.40;;;;;;4995376;28;20050;-49
2023/08/06 00:35:01;;;;;;;3.55;1.90;;;18.70;69.60;;;;;;4990965;28;20129;-52
2023/08/06 00:37:28;;;;;;;2.30;2.00;;;18.70;69.60;;;;;;4991761;28;20106;-52
2023/08/06 00:39:55;;;;;;;2.58;1.75;;;18.70;69.80;;;;;;4990932;28;20046;-49
2023/08/06 00:42:26;;;;;;;2.08;1.58;;;18.70;69.90;;;;;;5007588;28;20046;-47
2023/08/06 00:44:57;;;;;;;2.25;2.00;;;18.70;69.90;;;;;;4992075;28;20062;-50
2023/08/06 00:47:26;;;;;;;1.53;1.43;;;18.70;70.00;;;;;;4989883;28;20042;-52
2023/08/06 00:49:54;;;;;;;1.73;1.58;;;18.70;70.00;;;;;;4988284;28;20499;-47
2023/08/06 00:52:22;;;;;;;3.42;1.85;;;18.70;70.00;;;;;;4992476;28;20046;-51
2023/08/06 00:54:51;;;;;;;1.90;1.70;;;18.70;70.00;;;;;;4992049;28;20042;-49
2023/08/06 00:57:19;;;;;;;3.20;2.55;;;18.70;69.80;;;;;;4990957;28;20093;-52
2023/08/06 00:59:49;;;;;;;1.92;1.48;;;18.70;69.60;;;;;;4990237;28;20042;-48
2023/08/06 01:02:16;;;;;;;3.35;1.60;;;18.70;69.70;;;;;;4991653;28;20130;-51
2023/08/06 01:04:45;;;;;;;1.50;1.40;;;18.70;69.60;;;;;;4991340;28;20045;-49
2023/08/06 01:07:50;;;;;;;2.47;1.38;;;18.70;69.90;;;;;;4988511;28;20428;-48
2023/08/06 01:10:23;;;;;;;5.35;1.95;;;18.60;70.50;;;;;;4975411;28;20090;-49
2023/08/06 01:13:18;;;;;;;2.60;1.88;;;18.70;70.20;;;;;;4991833;28;20053;-51
2023/08/06 01:15:51;;;;;;;2.05;1.67;;;18.70;70.90;;;;;;4988057;28;20055;-49
2023/08/06 01:18:18;;;;;;;2.78;1.52;;;18.70;70.70;;;;;;4989980;28;20129;-51
2023/08/06 01:20:46;;;;;;;1.85;1.70;;;18.70;70.60;;;;;;4991029;28;20042;-51
2023/08/06 01:23:12;;;;;;;1.95;1.63;;;18.70;70.60;;;;;;4991966;28;20046;-48
2023/08/06 01:25:55;;;;;;;2.30;1.65;;;18.80;70.60;;;;;;4990224;28;20550;-47
2023/08/06 01:28:48;;;;;;;2.85;1.73;;;18.80;70.90;;;;;;4988074;28;20563;-49
2023/08/06 01:31:26;;;;;;;2.90;1.83;;;18.90;71.10;;;;;;5005775;28;20057;-52
2023/08/06 01:33:53;;;;;;;3.67;1.77;;;18.80;70.80;;;;;;4988652;28;20109;-48
2023/08/06 01:36:24;;;;;;;2.95;1.50;;;18.80;70.60;;;;;;4989236;28;20038;-51
2023/08/06 01:38:52;;;;;;;2.72;2.08;;;18.80;70.70;;;;;;4989337;28;20109;-49
2023/08/06 01:41:21;;;;;;;1.83;1.73;;;18.80;70.80;;;;;;4990846;28;20036;-48
2023/08/06 01:43:48;;;;;;;2.60;2.00;;;18.90;70.80;;;;;;4990252;28;20500;-52
2023/08/06 01:46:15;;;;;;;5.93;2.10;;;18.90;70.80;;;;;;4987973;28;20086;-52
2023/08/06 01:48:44;;;;;;;2.33;1.80;;;18.90;70.80;;;;;;4988954;28;20042;-48
2023/08/06 01:51:11;;;;;;;2.80;1.70;;;18.90;70.90;;;;;;4986467;28;20034;-52
2023/08/06 01:53:37;;;;;;;3.40;1.80;;;18.90;70.90;;;;;;4990732;28;20038;-51
2023/08/06 01:56:06;;;;;;;6.15;1.88;;;19.00;70.80;;;;;;4988440;28;20050;-48
2023/08/06 01:58:40;;;;;;;2.67;1.75;;;19.00;70.90;;;;;;4987930;28;20050;-52
2023/08/06 02:01:07;;;;;;;4.07;2.00;;;19.00;70.90;;;;;;4989337;28;20046;-51
2023/08/06 02:03:39;;;;;;;4.90;1.90;;;19.00;70.70;;;;;;4990988;28;20364;-52
2023/08/06 02:06:05;;;;;;;2.60;2.08;;;19.00;70.80;;;;;;4989699;28;20065;-50
2023/08/06 02:08:32;;;;;;;3.90;1.77;;;19.00;70.80;;;;;;4987204;28;20038;-49
2023/08/06 02:11:01;;;;;;;3.55;1.80;;;19.10;71.00;;;;;;4988915;28;20058;-50
2023/08/06 02:13:30;;;;;;;1.67;1.58;;;19.10;71.00;;;;;;4989782;28;20046;-52
2023/08/06 02:15:57;;;;;;;2.83;1.88;;;19.10;71.00;;;;;;4989185;28;20489;-51
2023/08/06 02:18:26;;;;;;;2.45;1.80;;;19.10;70.80;;;;;;4989314;28;20061;-49
2023/08/06 02:20:58;;;;;;;3.30;1.90;;;19.10;70.90;;;;;;4992366;28;20054;-48
2023/08/06 02:23:25;;;;;;;2.03;1.70;;;19.10;71.20;;;;;;4991020;28;20272;-51
2023/08/06 02:26:03;;;;;;;2.88;1.92;;;19.10;70.80;;;;;;4988939;28;20121;-51
2023/08/06 02:28:32;;;;;;;1.58;1.40;;;19.10;71.20;;;;;;4986727;28;20121;-49
2023/08/06 02:30:59;;;;;;;3.42;1.58;;;19.10;70.80;;;;;;4989662;28;20497;-48
2023/08/06 02:33:25;;;;;;;2.78;1.90;;;19.20;70.80;;;;;;4990457;28;20050;-51
2023/08/06 02:36:03;;;;;;;3.45;1.80;;;19.10;70.50;;;;;;4989862;28;20129;-50
2023/08/06 02:38:30;;;;;;;2.70;1.48;;;19.10;70.60;;;;;;4988856;28;20046;-49
2023/08/06 02:41:01;;;;;;;1.70;1.60;;;19.10;70.20;;;;;;4988251;28;20457;-50
2023/08/06 02:43:31;;;;;;;2.70;1.55;;;19.00;70.10;;;;;;4990975;28;20493;-48
2023/08/06 02:46:01;;;;;;;3.38;1.52;;;19.00;70.10;;;;;;4988722;28;20077;-49
2023/08/06 02:48:38;;;;;;;2.55;1.60;;;19.00;70.10;;;;;;4986393;28;20050;-52
2023/08/06 02:51:09;;;;;;;2.55;1.85;;;18.90;70.30;;;;;;4984886;28;20046;-49
2023/08/06 02:53:38;;;;;;;3.05;1.83;;;18.90;70.20;;;;;;4989070;28;20074;-51
2023/08/06 02:56:10;;;;;;;4.28;1.90;;;18.90;70.40;;;;;;4982253;28;20539;-49
2023/08/06 02:58:53;;;;;;;2.10;1.45;;;18.80;70.50;;;;;;4987761;28;20413;-51
2023/08/06 03:01:30;;;;;;;2.38;1.67;;;18.80;70.60;;;;;;4988396;28;20251;-53
2023/08/06 03:04:07;;;;;;;4.40;2.15;;;18.80;70.70;;;;;;4988758;28;20039;-52
2023/08/06 03:06:40;;;;;;;2.17;1.60;;;18.80;70.90;;;;;;4988255;28;20863;-50
2023/08/06 03:09:09;;;;;;;2.72;1.73;;;18.80;71.60;;;;;;4983323;28;20038;-52
2023/08/06 03:11:41;;;;;;;2.05;1.70;;;18.80;71.10;;;;;;4988405;28;20445;-53
2023/08/06 03:14:12;;;;;;;2.50;1.58;;;18.70;71.20;;;;;;4999695;28;20133;-49
2023/08/06 03:16:39;;;;;;;3.35;1.77;;;18.80;71.30;;;;;;4987733;28;20046;-52
2023/08/06 03:19:06;;;;;;;2.25;2.05;;;18.70;71.50;;;;;;4989139;28;20046;-51
2023/08/06 03:21:33;;;;;;;2.92;2.13;;;18.80;71.60;;;;;;4987941;28;20065;-51
2023/08/06 03:24:03;;;;;;;2.30;1.75;;;18.80;71.60;;;;;;4988157;28;20035;-50
2023/08/06 03:26:32;;;;;;;2.43;2.10;;;18.80;71.70;;;;;;4984598;28;20442;-50
2023/08/06 03:29:01;;;;;;;3.35;2.08;;;18.80;71.60;;;;;;4986542;28;20037;-49
2023/08/06 03:31:30;;;;;;;2.05;1.50;;;18.80;71.70;;;;;;4983265;28;20142;-53
2023/08/06 03:33:58;;;;;;;2.17;1.60;;;18.80;71.80;;;;;;4989949;28;20065;-50
2023/08/06 03:36:27;;;;;;;3.38;2.13;;;18.80;71.70;;;;;;4993150;28;20054;-52
2023/08/06 03:38:54;;;;;;;3.55;1.63;;;18.90;71.80;;;;;;4991308;28;20047;-52
2023/08/06 03:41:23;;;;;;;4.55;1.95;;;18.90;71.70;;;;;;4989055;28;20042;-52
2023/08/06 03:43:50;;;;;;;3.70;1.95;;;18.90;71.70;;;;;;4992222;28;20120;-51
2023/08/06 03:46:26;;;;;;;3.75;1.92;;;18.90;71.70;;;;;;4991925;28;20038;-50
2023/08/06 03:49:01;;;;;;;2.60;1.70;;;19.00;72.00;;;;;;5006668;28;20038;-49
2023/08/06 03:51:28;;;;;;;2.13;1.63;;;19.00;71.80;;;;;;4989117;28;20050;-49
2023/08/06 03:53:56;;;;;;;3.33;1.88;;;19.00;72.00;;;;;;4991510;28;20081;-50
2023/08/06 03:56:25;;;;;;;4.03;1.90;;;19.00;71.90;;;;;;5018395;22;20049;-52
2023/08/06 03:58:53;;;;;;;4.18;1.90;;;19.00;71.90;;;;;;5030502;28;20037;-49
2023/08/06 04:01:27;;;;;;;2.65;1.75;;;19.00;71.80;;;;;;5025990;28;20041;-47
2023/08/06 04:03:58;;;;;;;2.15;1.85;;;19.00;71.80;;;;;;5032704;28;20048;-49
2023/08/06 04:06:25;;;;;;;2.47;1.92;;;19.10;72.30;;;;;;5028794;28;20499;-47
2023/08/06 04:08:52;;;;;;;2.47;1.60;;;19.10;72.00;;;;;;5008744;28;20504;-47
2023/08/06 04:11:18;;;;;;;1.67;1.55;;;19.10;72.10;;;;;;5011704;28;20096;-47
2023/08/06 04:13:45;;;;;;;1.63;1.33;;;19.10;72.10;;;;;;5013273;28;20050;-50
2023/08/06 04:16:15;;;;;;;2.38;1.67;;;19.10;72.20;;;;;;5012349;28;20471;-47
2023/08/06 04:18:42;;;;;;;1.42;1.27;;;19.10;72.10;;;;;;5011175;28;20045;-52
2023/08/06 04:21:12;;;;;;;4.18;1.42;;;19.10;72.10;;;;;;5005268;28;20046;-47
2023/08/06 04:23:39;;;;;;;2.53;1.58;;;19.10;72.30;;;;;;5012593;28;20041;-49
2023/08/06 04:26:08;;;;;;;1.30;1.20;;;19.10;72.40;;;;;;5011214;28;20108;-48
2023/08/06 04:28:36;;;;;;;1.48;1.38;;;19.10;72.50;;;;;;5009771;28;20582;-47
2023/08/06 04:31:05;;;;;;;2.15;1.95;;;19.10;72.50;;;;;;5009908;28;20542;-49
2023/08/06 04:33:35;;;;;;;4.30;2.35;;;19.20;72.40;;;;;;5013797;28;20042;-49
2023/08/06 04:36:09;;;;;;;1.00;1.00;;;19.20;73.10;;;;;;5020921;28;20076;-47
2023/08/06 04:38:36;;;;;;;2.03;1.77;;;19.20;72.60;;;;;;5009830;28;20095;-48
2023/08/06 04:41:05;;;;;;;1.75;1.65;;;19.20;72.60;;;;;;5012412;28;20812;-47
2023/08/06 04:43:37;;;;;;;1.45;1.30;;;19.20;72.70;;;;;;5013249;28;20049;-49
2023/08/06 04:46:03;;;;;;;1.80;1.50;;;19.20;72.70;;;;;;5010002;28;20099;-48
2023/08/06 04:48:30;;;;;;;1.75;1.55;;;19.20;72.70;;;;;;5011671;28;20500;-47
2023/08/06 04:50:57;;;;;;;2.25;1.40;;;19.20;72.80;;;;;;5011681;28;20046;-51
2023/08/06 04:53:26;;;;;;;2.55;1.50;;;19.30;72.70;;;;;;5014123;28;20088;-48
2023/08/06 04:55:52;;;;;;;2.42;1.52;;;19.30;72.80;;;;;;5011937;28;20042;-47
2023/08/06 04:58:22;;;;;;;1.10;1.00;;;19.30;72.90;;;;;;5011627;28;20084;-51
2023/08/06 05:00:58;;;;;;;1.10;0.70;;;19.30;72.90;;;;;;5011262;28;20045;-47
2023/08/06 05:03:25;;;;;;;1.30;1.20;;;19.30;72.90;;;;;;5011838;28;20506;-47
2023/08/06 05:05:55;;;;;;;1.58;1.10;;;19.40;72.80;;;;;;5011418;28;20069;-50
2023/08/06 05:08:25;;;;;;;1.20;1.10;;;19.40;73.00;;;;;;5012084;28;20440;-48
2023/08/06 05:10:54;;;;;;;4.78;1.30;;;19.40;72.90;;;;;;5009149;28;20073;-52
2023/08/06 05:13:25;;;;;;;1.95;0.85;;;19.40;72.80;;;;;;5012397;28;20472;-50
2023/08/06 05:15:56;;;;;;;1.13;0.75;;;19.40;72.80;;;;;;5011415;28;20053;-48
2023/08/06 05:18:27;;;;;;;1.23;0.95;;;19.50;72.70;;;;;;5011691;28;20615;-51
2023/08/06 05:20:56;;;;;;;0.85;0.80;;;19.50;72.90;;;;;;5011210;28;20122;-49
2023/08/06 05:23:26;;;;;;;1.45;0.80;;;19.60;72.90;;;;;;5012614;28;20049;-51
2023/08/06 05:25:55;;;;;;;0.75;0.75;;;19.60;72.70;;;;;;5012035;28;20125;-51
2023/08/06 05:28:27;;;;;;;0.80;0.80;;;19.60;72.80;;;;;;5009307;28;20092;-50
2023/08/06 05:30:54;;;;;;;1.73;0.85;;;19.70;72.80;;;;;;5010781;28;20125;-47
2023/08/06 05:33:20;;;;;;;0.98;0.68;;;19.70;72.60;;;;;;5012687;28;20076;-48
2023/08/06 05:35:50;;;;;;;1.67;0.80;;;19.70;72.50;;;;;;5010205;28;20064;-51
2023/08/06 05:38:20;;;;;;;0.75;0.60;;;19.70;72.50;;;;;;5012064;28;20089;-48
2023/08/06 05:40:47;;;;;;;0.77;0.75;;;19.70;72.50;;;;;;5010845;28;20050;-49
2023/08/06 05:43:19;;;;;;;1.08;0.70;;;19.70;72.50;;;;;;5011919;28;20060;-50
2023/08/06 05:45:46;;;;;;;1.35;0.45;;;19.70;72.20;;;;;;5009920;28;20069;-52
2023/08/06 05:48:17;;;;;;;0.98;0.57;;;19.80;72.40;;;;;;5011706;28;20053;-49
2023/08/06 05:50:46;;;;;;;0.73;0.40;;;19.80;72.40;;;;;;5010623;28;20120;-51
2023/08/06 05:53:17;;;;;;;0.40;0.40;;;19.80;72.20;;;;;;5012243;28;20074;-48
2023/08/06 05:55:47;;;;;;;0.98;0.40;;;19.80;72.20;;;;;;5010593;28;20130;-50
2023/08/06 05:58:17;;;;;;;0.80;0.40;;;19.80;71.80;;;;;;5010714;28;20080;-53
2023/08/06 06:00:44;;;;;;;1.30;0.40;;;19.80;71.70;;;;;;5008023;28;20129;-52
2023/08/06 06:03:11;;;;;;;2.63;0.65;;;19.80;71.50;;;;;;5011958;28;20067;-49
2023/08/06 06:05:39;;;;;;;0.40;0.40;;;19.80;71.60;;;;;;5011245;28;20527;-48
2023/08/06 06:08:08;;;;;;;1.05;0.40;;;19.80;71.60;;;;;;5010645;28;20037;-48
2023/08/06 06:10:35;;;;;;;0.77;0.40;;;19.80;71.80;;;;;;5009937;28;20065;-48
2023/08/06 06:13:02;;;;;;;0.30;0.30;;;19.80;71.80;;;;;;5010392;28;20045;-48
2023/08/06 06:15:31;;;;;;;0.57;0.38;;;19.80;71.70;;;;;;5004562;28;20130;-56
2023/08/06 06:17:57;;;;;;;0.80;0.30;;;19.80;71.70;;;;;;5005645;28;20069;-55
2023/08/06 06:20:33;;;;;;;1.38;0.40;;;19.80;71.80;;;;;;5007074;28;20049;-52
2023/08/06 06:23:05;;;;;;;0.47;0.38;;;19.80;71.60;;;;;;5009457;28;20050;-53
2023/08/06 06:25:32;;;;;;;0.35;0.35;;;19.90;71.50;;;;;;5009215;28;20099;-54
2023/08/06 06:28:01;;;;;;;0.50;0.30;;;19.80;71.50;;;;;;5009156;28;20046;-55
2023/08/06 06:30:27;;;;;;;0.55;0.22;;;19.80;71.40;;;;;;5008493;28;20578;-56
2023/08/06 06:32:56;;;;;;;0.30;0.30;;;19.90;71.30;;;;;;5009266;28;20056;-55
2023/08/06 06:35:29;;;;;;;0.57;0.40;;;19.90;71.10;;;;;;5024262;28;20053;-53
2023/08/06 06:37:56;;;;;;;1.58;0.50;;;19.90;70.90;;;;;;5006310;28;20061;-54
2023/08/06 06:40:24;;;;;;;0.40;0.40;;;19.90;70.70;;;;;;5007614;28;20511;-54
2023/08/06 06:42:56;;;;;;;0.40;0.40;;;19.90;70.80;;;;;;5009091;28;20054;-57
2023/08/06 06:45:29;;;;;;;0.75;0.45;;;19.90;70.80;;;;;;5008861;28;20062;-57
2023/08/06 06:47:55;;;;;;;0.82;0.40;;;19.90;70.80;;;;;;4990467;28;20919;-57
2023/08/06 06:50:22;;;;;;;0.55;0.30;;;19.90;71.00;;;;;;5004928;28;20042;-52
2023/08/06 06:52:49;;;;;;;1.35;0.30;;;19.90;71.20;;;;;;5006932;28;20055;-58
2023/08/06 06:55:16;;;;;;;0.98;0.55;;;19.90;71.20;;;;;;5008840;28;20120;-55
2023/08/06 06:57:42;;;;;;;1.20;0.20;;;20.00;71.30;;;;;;5008256;28;20054;-54
2023/08/06 07:00:09;;;;;;;3.08;0.85;;;20.00;70.70;;;;;;5009154;28;20156;-50
2023/08/06 07:02:36;;;;;;;1.55;0.68;;;20.00;70.70;;;;;;5007056;28;20505;-56
2023/08/06 07:05:03;;;;;;;1.65;0.40;;;20.00;70.80;;;;;;5002528;28;20724;-56
2023/08/06 07:07:30;;;;;;;0.30;0.30;;;20.00;70.90;;;;;;5008065;28;20049;-55
2023/08/06 07:09:56;;;;;;;0.60;0.30;;;20.00;70.80;;;;;;5010271;28;20100;-56
2023/08/06 07:12:23;;;;;;;0.50;0.50;;;20.00;70.60;;;;;;5009030;28;20116;-54
2023/08/06 07:14:50;;;;;;;1.05;0.47;;;20.10;70.90;;;;;;5009454;28;20037;-55
2023/08/06 07:17:17;;;;;;;0.73;0.40;;;20.10;70.80;;;;;;5006743;28;20046;-54
2023/08/06 07:19:43;;;;;;;0.40;0.40;;;20.10;71.30;;;;;;5008895;28;20046;-52
2023/08/06 07:22:11;;;;;;;0.38;0.30;;;20.10;71.30;;;;;;5008414;28;20049;-56
2023/08/06 07:24:37;;;;;;;2.33;1.15;;;20.10;71.10;;;;;;5008350;28;20065;-55
2023/08/06 07:27:04;;;;;;;1.60;0.50;;;20.10;71.10;;;;;;5008883;28;20078;-54
2023/08/06 07:29:31;;;;;;;0.68;0.43;;;20.20;71.50;;;;;;5006765;28;20034;-57
2023/08/06 07:31:58;;;;;;;0.68;0.68;;;20.20;71.40;;;;;;5007141;28;20504;-57
2023/08/06 07:34:25;;;;;;;1.02;0.50;;;20.10;71.20;;;;;;5009219;28;20445;-56
2023/08/06 07:36:51;;;;;;;0.98;0.60;;;20.10;71.30;;;;;;5003838;28;20559;-53
2023/08/06 07:39:18;;;;;;;0.82;0.60;;;20.10;71.40;;;;;;5007443;28;20451;-55
2023/08/06 07:41:45;;;;;;;1.67;0.50;;;20.10;71.70;;;;;;5009083;28;20050;-54
2023/08/06 07:44:12;;;;;;;1.27;1.17;;;20.00;71.20;;;;;;5009676;28;20046;-54
2023/08/06 07:46:39;;;;;;;1.48;0.63;;;20.00;71.30;;;;;;5008405;28;20056;-54
2023/08/06 07:49:05;;;;;;;0.90;0.80;;;20.00;71.60;;;;;;5008673;28;20034;-54
2023/08/06 07:51:32;;;;;;;1.30;0.80;;;20.00;71.50;;;;;;5008908;28;20635;-54
2023/08/06 07:53:59;;;;;;;2.13;0.80;;;20.00;71.60;;;;;;5008338;28;20122;-55
2023/08/06 07:56:25;;;;;;;1.60;1.10;;;20.00;72.00;;;;;;5008016;28;20038;-55
2023/08/06 07:58:52;;;;;;;0.60;0.57;;;20.00;72.10;;;;;;5008446;28;20550;-55
2023/08/06 08:01:19;;;;;;;1.33;0.57;;;20.00;72.30;;;;;;5005658;28;20041;-56
2023/08/06 08:03:45;;;;;;;0.55;0.55;;;20.00;72.00;;;;;;5009054;28;20041;-56
2023/08/06 08:06:12;;;;;;;1.10;0.60;;;20.00;71.80;;;;;;5006420;28;20538;-55
2023/08/06 08:08:39;;;;;;;0.30;0.30;;;20.00;71.60;;;;;;5008382;28;20061;-50
2023/08/06 08:11:06;;;;;;;0.30;0.30;;;20.00;71.70;;;;;;5009197;28;20112;-57
2023/08/06 08:13:33;;;;;;;0.68;0.47;;;19.90;71.40;;;;;;5006038;28;20104;-56
2023/08/06 08:16:02;;;;;;;0.40;0.40;;;19.90;71.70;;;;;;5008913;28;20104;-57
2023/08/06 08:18:29;;;;;;;0.60;0.50;;;19.80;71.90;;;;;;5008352;28;20407;-56
2023/08/06 08:20:56;;;;;;;0.38;0.38;;;19.80;72.40;;;;;;5008396;28;20104;-55
2023/08/06 08:23:23;;;;;;;0.60;0.60;;;19.70;72.40;;;;;;5003527;28;20488;-54
2023/08/06 08:25:49;;;;;;;0.55;0.50;;;19.70;72.40;;;;;;5013146;28;20045;-54
2023/08/06 08:28:16;;;;;;;0.70;0.70;;;19.70;73.10;;;;;;5011740;28;20076;-55
2023/08/06 08:30:43;;;;;;;1.23;0.88;;;19.60;72.90;;;;;;5007369;28;20394;-55
2023/08/06 08:33:10;;;;;;;3.45;1.20;;;19.60;73.00;;;;;;5011555;28;20049;-54
2023/08/06 08:35:37;;;;;;;1.20;1.10;;;19.60;73.20;;;;;;5013010;28;20053;-56
2023/08/06 08:38:04;;;;;;;1.65;1.35;;;19.50;73.40;;;;;;5012391;28;20088;-57
2023/08/06 08:40:34;;;;;;;2.08;1.40;;;19.50;73.70;;;;;;5012523;28;20385;-55
2023/08/06 08:43:01;;;;;;;1.90;1.70;;;19.50;73.90;;;;;;5012394;28;20131;-56
2023/08/06 08:45:29;;;;;;;1.70;1.60;;;19.50;74.10;;;;;;5012919;28;20038;-54
2023/08/06 08:47:56;;;;;;;2.03;1.75;;;19.50;74.30;;;;;;5012293;28;20064;-54
2023/08/06 08:50:24;;;;;;;2.63;2.00;;;19.50;74.50;;;;;;5011814;28;20096;-54
2023/08/06 08:52:51;;;;;;;2.00;1.80;;;19.60;74.70;;;;;;5011016;28;20125;-52
2023/08/06 08:55:21;;;;;;;1.45;1.25;;;19.60;74.90;;;;;;5012049;28;20088;-55
2023/08/06 08:57:47;;;;;;;1.80;1.27;;;19.60;74.00;;;;;;5011408;28;20096;-54
2023/08/06 09:00:14;;;;;;;1.42;1.20;;;19.60;73.70;;;;;;5006383;28;20483;-53
2023/08/06 09:02:43;;;;;;;0.90;0.80;;;19.60;73.70;;;;;;5010888;28;20095;-56
2023/08/06 09:05:10;;;;;;;0.73;0.73;;;19.50;73.60;;;;;;5010025;28;20041;-54
2023/08/06 09:07:43;;;;;;;1.15;1.05;;;19.50;73.70;;;;;;5010988;28;20041;-52
2023/08/06 09:10:13;;;;;;;0.93;0.93;;;19.40;74.60;;;;;;5006708;28;20129;-54
2023/08/06 09:12:41;;;;;;;2.03;0.80;;;19.30;73.70;;;;;;5011526;28;20046;-55
2023/08/06 09:15:08;;;;;;;0.90;0.90;;;19.20;73.90;;;;;;5009602;28;20120;-53
2023/08/06 09:17:35;;;;;;;0.85;0.85;;;19.20;74.20;;;;;;5010793;28;20135;-55
2023/08/06 09:20:10;;;;;;;1.25;1.15;;;19.10;74.20;;;;;;5009051;28;20056;-55
2023/08/06 09:22:37;;;;;;;1.10;1.00;;;19.00;74.60;;;;;;5011010;28;20484;-55
2023/08/06 09:25:09;;;;;;;1.90;1.75;;;19.00;74.10;;;;;;5011196;28;20516;-57
2023/08/06 09:27:37;;;;;;;;;;;18.90;74.40;;;;;;5009622;28;20041;-57
2023/08/06 09:30:06;;;;;;;1.33;1.23;;;18.90;74.40;;;;;;5009678;28;20438;-54
2023/08/06 09:32:51;;;;;;;2.55;1.50;;;18.80;73.90;;;;;;5022482;28;20052;-54
2023/08/06 09:35:21;;;;;;;1.30;1.20;;;18.80;74.50;;;;;;5008092;28;20031;-57
2023/08/06 09:37:48;;;;;;;1.20;1.20;;;18.70;73.90;;;;;;5009941;28;20125;-57
2023/08/06 09:40:29;;;;;;;1.90;1.80;;;18.60;73.80;;;;;;5009265;28;20053;-56
2023/08/06 09:42:57;;;;;;;1.45;1.35;;;18.60;74.40;;;;;;5010742;28;20042;-55
2023/08/06 09:45:30;;;;;;;2.22;1.80;;;18.60;74.10;;;;;;5009828;28;20753;-57
2023/08/06 09:47:59;;;;;;;2.00;1.50;;;18.50;74.50;;;;;;5010353;28;20034;-56
2023/08/06 09:50:35;;;;;;;1.80;1.70;;;18.40;74.50;;;;;;5008659;28;20040;-57
2023/08/06 09:53:03;;;;;;;1.58;1.20;;;18.40;75.10;;;;;;5010113;28;20092;-56
2023/08/06 09:55:29;;;;;;;1.30;1.20;;;18.30;75.20;;;;;;5010586;28;20069;-57
2023/08/06 09:57:58;;;;;;;1.15;0.90;;;18.30;75.50;;;;;;5009770;28;20073;-55
2023/08/06 10:00:24;;;;;;;1.10;1.00;;;18.30;75.20;;;;;;5008264;28;20048;-57
2023/08/06 10:02:54;;;;;;;1.83;1.13;;;18.30;75.60;;;;;;5010951;28;20034;-54
2023/08/06 10:05:23;;;;;;;1.25;1.15;;;18.30;75.80;;;;;;5009818;28;20042;-55
2023/08/06 10:07:50;;;;;;;2.10;1.55;;;18.30;75.60;;;;;;5009748;28;20048;-54
2023/08/06 10:10:19;;;;;;;3.10;1.50;;;18.30;75.60;;;;;;5009579;28;20037;-54
2023/08/06 10:12:51;;;;;;;1.75;1.33;;;18.20;75.80;;;;;;5008719;28;20049;-55
2023/08/06 10:15:24;;;;;;;3.65;1.77;;;18.20;76.40;;;;;;5009128;28;20077;-55
2023/08/06 10:17:55;;;;;;;3.00;1.60;;;18.20;76.80;;;;;;5010025;28;20088;-55
2023/08/06 10:20:22;;;;;;;3.45;2.35;;;18.20;76.90;;;;;;5009457;28;20060;-55
2023/08/06 10:23:10;;;;;;;2.75;2.00;;;18.20;76.70;;;;;;5010265;28;20042;-56
2023/08/06 10:25:42;;;;;;;5.15;1.70;;;18.30;77.40;;;;;;5008163;28;20093;-52
2023/08/06 10:28:10;;;;;;;;;;;18.30;76.80;;;;;;5012724;28;20034;-55
2023/08/06 10:30:45;;;;;;;2.67;1.75;;;18.40;76.90;;;;;;5006777;28;19929;-54
2023/08/06 10:33:13;;;;;;;3.58;1.52;;;18.40;77.20;;;;;;5010512;28;20500;-56
2023/08/06 10:35:50;;;;;;;3.17;2.80;;;18.40;77.10;;;;;;5008218;28;20142;-54
2023/08/06 10:38:21;;;;;;;2.63;2.00;;;18.50;77.80;;;;;;5004819;28;20046;-56
2023/08/06 10:40:50;;;;;;;4.65;1.90;;;18.50;77.70;;;;;;5009365;28;20061;-56
2023/08/06 10:43:27;;;;;;;3.80;1.88;;;18.60;78.20;;;;;;5010187;28;20049;-56
2023/08/06 10:45:54;;;;;;;2.97;1.80;;;18.60;79.10;;;;;;5004853;28;20042;-56
2023/08/06 10:48:39;;;;;;;3.17;1.90;;;18.70;78.10;;;;;;5009031;28;20566;-55
2023/08/06 10:51:11;;;;;;;4.68;2.58;;;18.80;78.30;;;;;;5009061;28;20536;-56
2023/08/06 10:53:42;;;;;;;2.83;1.63;;;18.80;78.00;;;;;;5009306;28;20049;-55
2023/08/06 10:56:16;;;;;;;2.92;1.70;;;18.90;77.60;;;;;;5007216;28;20042;-56
2023/08/06 10:58:44;;;;;;;1.55;1.10;;;18.90;77.10;;;;;;5007865;28;20152;-54
2023/08/06 11:01:11;;;;;;;1.60;1.23;;;19.00;76.10;;;;;;5007149;28;20049;-56
2023/08/06 11:03:38;;;;;;;3.20;1.23;;;19.10;76.10;;;;;;5010104;28;20038;-56
2023/08/06 11:06:09;;;;;;;1.85;1.05;;;19.10;75.80;;;;;;5008143;28;20049;-55
2023/08/06 11:08:37;;;;;;;3.33;1.33;;;19.20;76.50;;;;;;5006960;28;20037;-55
2023/08/06 11:11:12;;;;;;;1.63;1.27;;;19.20;75.80;;;;;;5008085;28;20061;-54
2023/08/06 11:13:46;;;;;;;1.15;1.08;;;19.30;74.90;;;;;;5005743;28;20045;-56
2023/08/06 11:16:15;;;;;;;2.38;1.52;;;19.30;74.00;;;;;;5004247;28;20555;-55
2023/08/06 11:18:44;;;;;;;1.50;1.00;;;19.30;73.70;;;;;;5002270;28;20041;-56
2023/08/06 11:21:14;;;;;;;1.83;1.10;;;19.30;73.40;;;;;;5006380;28;20046;-55
2023/08/06 11:23:41;;;;;;;3.08;1.20;;;19.30;73.30;;;;;;5005697;28;20042;-51
2023/08/06 11:26:10;;;;;;;3.10;1.10;;;19.40;73.20;;;;;;5010636;28;20034;-55
2023/08/06 11:28:37;;;;;;;3.00;1.48;;;19.40;72.90;;;;;;5003846;28;20038;-55
2023/08/06 11:31:04;;;;;;;3.17;1.40;;;19.40;72.80;;;;;;5007926;28;20037;-51
2023/08/06 11:33:31;;;;;;;1.48;0.90;;;19.30;72.40;;;;;;5009901;28;20046;-52
2023/08/06 11:35:59;;;;;;;1.20;0.88;;;19.30;72.00;;;;;;5007843;28;20045;-54
2023/08/06 11:38:28;;;;;;;1.25;0.82;;;19.30;71.80;;;;;;5006627;28;20124;-53
2023/08/06 11:40:55;;;;;;;3.85;1.70;;;19.30;71.80;;;;;;5008694;28;20034;-52
2023/08/06 11:43:22;;;;;;;1.20;0.90;;;19.40;71.90;;;;;;5008614;28;20524;-54
2023/08/06 11:45:52;;;;;;;1.63;1.10;;;19.40;71.70;;;;;;5012112;28;20037;-54
2023/08/06 11:48:19;;;;;;;2.30;0.82;;;19.40;71.80;;;;;;5007421;28;20038;-53
2023/08/06 11:50:46;;;;;;;1.95;1.10;;;19.50;72.00;;;;;;5008821;28;20161;-54
2023/08/06 11:53:16;;;;;;;1.65;1.27;;;19.50;71.90;;;;;;5007999;28;20116;-54
2023/08/06 11:55:44;;;;;;;1.65;1.10;;;19.60;71.20;;;;;;5008192;28;20041;-54
2023/08/06 11:58:11;;;;;;;3.65;1.52;;;19.60;71.80;;;;;;5008613;28;20112;-51
2023/08/06 12:00:39;;;;;;;3.55;1.80;;;19.70;71.50;;;;;;5011797;28;20504;-55
2023/08/06 12:03:05;;;;;;;4.20;1.80;;;19.80;71.20;;;;;;5012659;28;20085;-55
2023/08/06 12:05:33;;;;;;;3.55;1.70;;;19.80;70.90;;;;;;5013084;28;20065;-53
2023/08/06 12:08:02;;;;;;;3.50;1.80;;;19.80;71.60;;;;;;5011876;28;20085;-51
2023/08/06 12:10:31;;;;;;;4.22;1.70;;;19.90;71.90;;;;;;5012297;28;20038;-55
2023/08/06 12:12:59;;;;;;;3.58;1.58;;;20.00;71.60;;;;;;5010166;28;20416;-51
2023/08/06 12:15:26;;;;;;;3.78;1.95;;;20.10;71.40;;;;;;5011128;28;20072;-51
2023/08/06 12:17:53;;;;;;;8.23;2.20;;;20.20;71.00;;;;;;5011111;28;20125;-54
2023/08/06 12:20:22;;;;;;;3.42;1.63;;;20.20;71.60;;;;;;5011749;28;20100;-52
2023/08/06 12:22:49;;;;;;;2.67;1.52;;;20.30;71.60;;;;;;5008601;28;20121;-52
2023/08/06 12:25:16;;;;;;;3.60;1.67;;;20.40;71.70;;;;;;5011407;28;20073;-53
2023/08/06 12:27:44;;;;;;;4.45;1.80;;;20.50;71.40;;;;;;5011006;28;20092;-53
2023/08/06 12:30:12;;;;;;;2.33;1.77;;;20.50;71.00;;;;;;5006190;28;20126;-54
2023/08/06 12:32:39;;;;;;;3.17;1.95;;;20.60;70.50;;;;;;5006932;28;20053;-55
2023/08/06 12:35:07;;;;;;;2.88;1.63;;;20.60;70.20;;;;;;5010744;28;20037;-55
2023/08/06 12:37:34;;;;;;;2.25;1.92;;;20.60;70.70;;;;;;5004343;28;20112;-54
2023/08/06 12:40:01;;;;;;;2.65;2.13;;;20.70;70.00;;;;;;5016796;28;20069;-53
2023/08/06 12:42:50;;;;;;;4.68;1.83;;;20.70;70.70;;;;;;5011854;28;20046;-55
2023/08/06 12:45:17;;;;;;;4.22;2.45;;;20.70;70.40;;;;;;5007916;28;20447;-50
2023/08/06 12:47:43;;;;;;;3.28;2.05;;;20.70;70.30;;;;;;5010301;28;20077;-55
2023/08/06 12:50:10;;;;;;;4.07;2.83;;;20.70;70.30;;;;;;5005509;28;20074;-54
2023/08/06 12:52:37;;;;;;;4.05;1.40;;;20.60;70.40;;;;;;5006466;28;20076;-52
2023/08/06 12:55:04;;;;;;;2.78;1.50;;;20.60;70.60;;;;;;5010516;28;21107;-55
2023/08/06 12:57:30;;;;;;;5.88;1.95;;;20.60;70.60;;;;;;5011199;28;20097;-54